createdAt,value
2023-11-01T04:50:00.705Z,96486.81
2023-11-01T04:52:27.890Z,96491.91
2023-11-01T04:54:55.049Z,96473.16
2023-11-01T04:57:22.189Z,96470.19
2023-11-01T04:59:49.118Z,96472.78
2023-11-01T05:02:17.201Z,96467.22
2023-11-01T05:04:44.231Z,96476.84
2023-11-01T05:07:11.158Z,96477.88
2023-11-01T05:09:38.079Z,96477.81
2023-11-01T05:12:05.088Z,96478.88
2023-11-01T05:14:32.061Z,96473.13
2023-11-01T05:16:59.210Z,96462.38
2023-11-01T05:19:26.244Z,96465.34
2023-11-01T05:21:53.165Z,96470.47
2023-11-01T05:24:20.068Z,96475.41
2023-11-01T05:26:47.143Z,96471.94
2023-11-01T05:29:14.106Z,96467.16
2023-11-01T05:31:40.998Z,96463.84
2023-11-01T05:34:07.909Z,96457.91
2023-11-01T05:36:34.800Z,96464.50
2023-11-01T05:39:01.720Z,96461.38
2023-11-01T05:41:28.764Z,96464.97
2023-11-01T05:43:55.669Z,96453.94
2023-11-01T05:46:23.648Z,96461.66
2023-11-01T05:48:50.647Z,96449.69
2023-11-01T05:51:17.545Z,96454.84
2023-11-01T05:53:44.433Z,96443.47
2023-11-01T05:56:11.433Z,96439.31
2023-11-01T05:58:38.341Z,96432.34
2023-11-01T06:01:05.261Z,96439.47
2023-11-01T06:03:32.739Z,96438.31
2023-11-01T06:06:01.538Z,96427.06
2023-11-01T06:08:28.566Z,96432.28
2023-11-01T06:10:55.709Z,96438.34
2023-11-01T06:13:22.626Z,96442.09
2023-11-01T06:15:49.558Z,96432.66
2023-11-01T06:18:16.589Z,96430.25
2023-11-01T06:20:45.123Z,96437.50
2023-11-01T06:23:12.191Z,96440.91
2023-11-01T06:25:39.239Z,96431.19
2023-11-01T06:28:06.730Z,96425.84
2023-11-01T06:30:36.544Z,96434.59
2023-11-01T06:33:03.951Z,96422.69
2023-11-01T06:35:31.566Z,96422.41
2023-11-01T06:37:58.534Z,96417.44
2023-11-01T06:43:16.350Z,96418.94
2023-11-01T06:45:43.223Z,96419.25
2023-11-01T06:48:10.278Z,96425.13
2023-11-01T06:50:37.551Z,96425.69
2023-11-01T06:53:04.526Z,96434.66
2023-11-01T06:55:31.546Z,96433.00
2023-11-01T06:57:58.479Z,96435.13
2023-11-01T07:00:25.523Z,96432.81
2023-11-01T07:02:52.634Z,96433.63
2023-11-01T07:05:19.723Z,96443.44
2023-11-01T07:07:46.718Z,96439.69
2023-11-01T07:10:13.770Z,96440.06
2023-11-01T07:12:40.733Z,96440.88
2023-11-01T07:15:07.650Z,96443.38
2023-11-01T07:17:34.676Z,96441.28
2023-11-01T07:20:01.725Z,96437.66
2023-11-01T07:22:28.613Z,96444.25
2023-11-01T07:24:55.669Z,96430.97
2023-11-01T07:27:22.575Z,96436.31
2023-11-01T07:29:49.536Z,96435.78
2023-11-01T07:32:16.577Z,96433.94
2023-11-01T07:34:43.544Z,96438.88
2023-11-01T07:37:10.600Z,96437.16
2023-11-01T07:39:37.580Z,96440.72
2023-11-01T07:42:04.639Z,96445.69
2023-11-01T07:44:31.563Z,96437.88
2023-11-01T07:46:58.560Z,96428.81
2023-11-01T07:49:25.517Z,96434.75
2023-11-01T07:51:52.424Z,96430.63
2023-11-01T07:54:19.439Z,96431.97
2023-11-01T07:56:46.576Z,96431.63
2023-11-01T07:59:13.514Z,96438.75
2023-11-01T08:01:40.668Z,96437.81
2023-11-01T08:04:07.999Z,96439.53
2023-11-01T08:06:35.301Z,96438.41
2023-11-01T08:09:02.479Z,96435.56
2023-11-01T08:11:30.637Z,96429.72
2023-11-01T08:19:52.050Z,96433.94
2023-11-01T08:22:19.117Z,96429.16
2023-11-01T08:24:46.174Z,96429.50
2023-11-01T08:27:13.207Z,96425.59
2023-11-01T08:29:43.857Z,96417.75
2023-11-01T08:32:11.149Z,96421.03
2023-11-01T08:34:38.543Z,96417.78
2023-11-01T08:42:29.447Z,96425.94
2023-11-01T08:44:57.806Z,96432.59
2023-11-01T08:47:24.917Z,96429.97
2023-11-01T08:49:52.004Z,96436.06
2023-11-01T08:52:19.989Z,96436.66
2023-11-01T08:54:46.930Z,96430.81
2023-11-01T08:57:13.889Z,96429.50
2023-11-01T08:59:40.887Z,96425.25
2023-11-01T09:02:13.699Z,96425.53
2023-11-01T09:04:42.895Z,96418.84
2023-11-01T09:07:09.924Z,96418.66
2023-11-01T09:09:36.830Z,96416.88
2023-11-01T09:12:03.873Z,96417.94
2023-11-01T09:14:30.863Z,96417.69
2023-11-01T09:16:57.857Z,96424.34
2023-11-01T09:19:28.580Z,96426.25
2023-11-01T09:22:06.423Z,96425.94
2023-11-01T09:24:33.536Z,96436.59
2023-11-01T09:27:00.498Z,96423.69
2023-11-01T09:29:27.440Z,96424.94
2023-11-01T09:31:54.381Z,96430.44
2023-11-01T09:34:21.454Z,96424.06
2023-11-01T09:36:48.386Z,96425.19
2023-11-01T09:39:15.229Z,96422.28
2023-11-01T09:41:42.432Z,96422.28
2023-11-01T09:44:09.402Z,96416.75
2023-11-01T09:46:36.423Z,96417.50
2023-11-01T09:49:03.492Z,96415.25
2023-11-01T09:51:30.409Z,96421.59
2023-11-01T09:53:57.359Z,96426.94
2023-11-01T09:56:24.380Z,96420.91
2023-11-01T09:58:51.350Z,96404.66
2023-11-01T10:01:18.327Z,96399.78
2023-11-01T10:03:45.400Z,96395.38
2023-11-01T10:06:12.698Z,96393.72
2023-11-01T10:08:39.600Z,96390.63
2023-11-01T10:11:12.624Z,96393.09
2023-11-01T10:13:39.609Z,96388.38
2023-11-01T10:16:06.618Z,96394.34
2023-11-01T10:18:33.726Z,96392.91
2023-11-01T10:21:00.761Z,96382.72
2023-11-01T10:23:27.763Z,96386.25
2023-11-01T10:25:54.759Z,96387.72
2023-11-01T10:28:21.711Z,96385.00
2023-11-01T10:30:48.601Z,96376.91
2023-11-01T10:33:15.738Z,96365.34
2023-11-01T10:35:51.939Z,96352.03
2023-11-01T10:38:18.940Z,96345.38
2023-11-01T10:40:49.121Z,96348.28
2023-11-01T10:43:16.102Z,96339.19
2023-11-01T10:45:43.056Z,96333.16
2023-11-01T10:48:10.223Z,96334.34
2023-11-01T10:50:37.213Z,96331.75
2023-11-01T10:53:04.196Z,96334.06
2023-11-01T10:55:31.191Z,96330.09
2023-11-01T10:57:58.096Z,96332.91
2023-11-01T11:00:25.113Z,96332.03
2023-11-01T11:02:52.181Z,96338.00
2023-11-01T11:05:20.666Z,96338.84
2023-11-01T11:07:47.561Z,96329.63
2023-11-01T11:10:14.674Z,96341.09
2023-11-01T11:12:41.599Z,96328.97
2023-11-01T11:15:09.544Z,96317.94
2023-11-01T11:17:36.634Z,96311.88
2023-11-01T11:20:03.563Z,96310.19
2023-11-01T11:22:30.432Z,96314.59
2023-11-01T11:24:57.341Z,96302.75
2023-11-01T11:27:24.182Z,96290.00
2023-11-01T11:29:51.116Z,96280.00
2023-11-01T11:32:18.288Z,96281.31
2023-11-01T11:34:45.383Z,96274.75
2023-11-01T11:37:12.371Z,96280.16
2023-11-01T11:39:39.698Z,96274.59
2023-11-01T11:42:06.667Z,96278.50
2023-11-01T11:44:33.812Z,96271.97
2023-11-01T11:47:00.860Z,96267.56
2023-11-01T11:49:27.969Z,96255.94
2023-11-01T11:51:55.077Z,96256.19
2023-11-01T11:54:22.380Z,96253.72
2023-11-01T11:56:49.605Z,96261.25
2023-11-01T11:59:16.577Z,96264.44
2023-11-01T12:01:43.626Z,96266.63
2023-11-01T12:04:10.680Z,96259.34
2023-11-01T12:06:37.667Z,96252.53
2023-11-01T12:09:04.733Z,96245.00
2023-11-01T12:11:31.756Z,96252.53
2023-11-01T12:13:58.721Z,96264.66
2023-11-01T12:16:25.792Z,96261.50
2023-11-01T12:18:52.685Z,96253.97
2023-11-01T12:21:20.982Z,96248.88
2023-11-01T12:23:49.789Z,96245.75
2023-11-01T12:26:17.794Z,96257.41
2023-11-01T12:28:44.714Z,96255.94
2023-11-01T12:31:11.689Z,96250.59
2023-11-01T12:33:38.740Z,96244.03
2023-11-01T12:36:05.747Z,96248.91
2023-11-01T12:38:32.853Z,96257.16
2023-11-01T12:40:59.839Z,96259.88
2023-11-01T12:43:26.756Z,96259.88
2023-11-01T12:45:53.865Z,96263.00
2023-11-01T12:48:20.840Z,96265.72
2023-11-01T12:50:47.830Z,96250.84
2023-11-01T12:53:14.798Z,96255.97
2023-11-01T12:55:41.731Z,96239.66
2023-11-01T12:58:14.534Z,96251.34
2023-11-01T15:15:34.830Z,96261.94
2023-11-01T19:54:13.487Z,96106.63
2023-11-01T19:56:44.058Z,96104.59
2023-11-01T19:59:11.486Z,96099.34
2023-11-01T20:01:38.666Z,96095.47
2023-11-01T20:04:06.078Z,96087.25
2023-11-01T20:06:33.231Z,96079.19
2023-11-01T20:39:22.394Z,96018.25
2023-11-01T20:41:49.470Z,96014.66
2023-11-01T20:44:16.452Z,96010.59
2023-11-01T20:46:43.451Z,96004.38
2023-11-01T20:49:10.820Z,95995.06
2023-11-01T20:51:38.505Z,95984.81
2023-11-01T20:54:05.483Z,95987.44
2023-11-01T20:56:32.567Z,95985.72
2023-11-01T20:58:59.510Z,95981.34
2023-11-01T21:01:26.447Z,95981.66
2023-11-01T21:03:53.639Z,95966.25
2023-11-01T21:06:20.795Z,95959.91
2023-11-01T21:08:47.875Z,95964.44
2023-11-01T21:11:14.967Z,95953.78
2023-11-01T21:13:42.000Z,95950.28
2023-11-01T21:16:08.991Z,95947.56
2023-11-01T21:18:36.380Z,95947.75
2023-11-01T21:21:03.501Z,95924.84
2023-11-01T21:23:30.533Z,95925.38
2023-11-01T21:25:58.735Z,95919.56
2023-11-01T21:28:25.843Z,95906.69
2023-11-01T21:30:56.257Z,95909.81
2023-11-01T21:36:23.540Z,95886.06
